createdAt,value
2023-01-12T00:01:39.976Z,1.88
2023-01-12T00:04:07.304Z,2.10
2023-01-12T00:06:34.472Z,1.70
2023-01-12T00:09:04.556Z,1.42
2023-01-12T00:11:31.264Z,1.70
2023-01-12T00:13:58.275Z,1.88
2023-01-12T00:16:41.119Z,1.60
2023-01-12T00:19:13.533Z,1.50
2023-01-12T00:22:00.051Z,1.60
2023-01-12T00:24:28.079Z,1.50
2023-01-12T00:26:55.755Z,1.60
2023-01-12T00:29:23.673Z,1.67
2023-01-12T00:31:51.267Z,1.65
2023-01-12T00:34:18.001Z,1.90
2023-01-12T00:36:46.344Z,1.80
2023-01-12T00:39:14.172Z,1.90
2023-01-12T00:42:00.295Z,1.73
2023-01-12T00:44:45.551Z,1.77
2023-01-12T00:47:13.736Z,1.60
2023-01-12T00:49:43.577Z,1.40
2023-01-12T00:52:18.200Z,1.60
2023-01-12T00:54:51.848Z,1.50
2023-01-12T00:57:19.373Z,1.80
2023-01-12T00:59:46.499Z,1.70
2023-01-12T01:02:13.316Z,1.38
2023-01-12T01:04:39.972Z,1.60
2023-01-12T01:07:06.707Z,1.88
2023-01-12T01:09:33.175Z,1.25
2023-01-12T01:11:59.949Z,1.52
2023-01-12T01:14:26.420Z,1.67
2023-01-12T01:16:53.004Z,1.42
2023-01-12T01:19:19.670Z,1.38
2023-01-12T01:21:46.213Z,1.60
2023-01-12T01:24:14.069Z,1.45
2023-01-12T01:26:41.695Z,1.30
2023-01-12T01:29:08.834Z,1.42
2023-01-12T01:31:36.389Z,1.25
2023-01-12T01:34:03.111Z,1.40
2023-01-12T01:36:29.642Z,1.60
2023-01-12T01:38:56.199Z,1.50
2023-01-12T01:41:26.030Z,1.55
2023-01-12T01:43:56.204Z,1.33
2023-01-12T01:46:46.461Z,1.58
2023-01-12T01:49:30.373Z,1.55
2023-01-12T01:52:03.597Z,1.38
2023-01-12T01:54:35.381Z,1.42
2023-01-12T01:57:02.692Z,1.85
2023-01-12T01:59:34.723Z,1.20
2023-01-12T02:02:02.603Z,1.47
2023-01-12T02:04:30.069Z,1.65
2023-01-12T02:06:57.553Z,1.40
2023-01-12T02:09:26.236Z,1.40
2023-01-12T02:12:13.655Z,1.27
2023-01-12T02:14:59.969Z,1.13
2023-01-12T02:17:50.552Z,1.27
2023-01-12T02:20:20.025Z,1.40
2023-01-12T02:22:46.465Z,1.55
2023-01-12T02:25:15.781Z,1.27
2023-01-12T02:27:51.260Z,1.30
2023-01-12T02:30:55.410Z,1.30
2023-01-12T02:33:41.047Z,1.10
2023-01-12T02:36:29.398Z,1.30
2023-01-12T02:39:05.329Z,1.15
2023-01-12T02:42:11.621Z,1.20
2023-01-12T02:45:09.103Z,1.17
2023-01-12T02:47:45.450Z,1.23
2023-01-12T02:50:19.857Z,1.33
2023-01-12T02:52:54.139Z,1.10
2023-01-12T02:55:22.492Z,1.30
2023-01-12T02:57:50.150Z,1.27
2023-01-12T03:00:18.583Z,1.20
2023-01-12T03:02:45.199Z,1.27
2023-01-12T03:05:11.824Z,1.20
2023-01-12T03:07:47.110Z,1.08
2023-01-12T03:10:28.601Z,1.20
2023-01-12T03:12:57.536Z,0.93
2023-01-12T03:15:27.413Z,1.10
2023-01-12T03:18:06.763Z,1.23
2023-01-12T03:20:37.331Z,1.02
2023-01-12T03:23:14.225Z,1.10
2023-01-12T03:25:44.329Z,1.20
2023-01-12T03:28:14.152Z,1.10
2023-01-12T03:30:45.971Z,1.10
2023-01-12T03:33:13.411Z,1.38
2023-01-12T03:35:48.602Z,1.02
2023-01-12T03:38:40.214Z,1.10
2023-01-12T03:41:12.906Z,1.08
2023-01-12T03:43:48.005Z,1.10
2023-01-12T03:46:25.753Z,1.10
2023-01-12T03:49:05.319Z,1.20
2023-01-12T03:51:35.155Z,1.10
2023-01-12T03:54:04.627Z,1.10
2023-01-12T03:56:35.158Z,1.02
2023-01-12T03:59:03.345Z,0.95
2023-01-12T04:01:31.192Z,0.90
2023-01-12T04:03:57.724Z,1.13
2023-01-12T04:06:24.284Z,0.90
2023-01-12T04:08:50.765Z,1.20
2023-01-12T04:11:35.962Z,1.10
2023-01-12T04:14:02.523Z,0.90
2023-01-12T04:16:29.042Z,1.10
2023-01-12T04:18:55.509Z,1.00
2023-01-12T04:21:40.355Z,1.10
2023-01-12T04:24:06.896Z,1.00
2023-01-12T04:26:33.384Z,0.93
2023-01-12T04:28:59.833Z,1.00
2023-01-12T04:31:26.405Z,0.82
2023-01-12T04:33:52.883Z,1.10
2023-01-12T04:36:19.350Z,1.02
2023-01-12T04:38:46.952Z,1.00
2023-01-12T04:41:13.432Z,1.20
2023-01-12T04:43:40.027Z,1.00
2023-01-12T04:46:09.114Z,1.30
2023-01-12T04:48:36.210Z,1.00
2023-01-12T04:51:02.844Z,1.10
2023-01-12T04:53:29.808Z,0.90
2023-01-12T04:55:56.963Z,1.27
2023-01-12T04:58:23.815Z,1.10
2023-01-12T05:00:50.471Z,1.13
2023-01-12T05:03:17.608Z,0.60
2023-01-12T05:05:44.354Z,1.15
2023-01-12T05:08:29.415Z,1.00
2023-01-12T05:10:58.628Z,1.08
2023-01-12T05:13:28.061Z,1.08
2023-01-12T05:15:54.642Z,0.90
2023-01-12T05:18:21.357Z,0.82
2023-01-12T05:20:47.841Z,1.00
2023-01-12T05:23:14.350Z,1.00
2023-01-12T05:25:40.857Z,0.88
2023-01-12T05:28:07.695Z,0.90
2023-01-12T05:30:34.243Z,0.90
2023-01-12T05:33:00.772Z,0.90
2023-01-12T05:35:27.296Z,1.10
2023-01-12T05:37:56.550Z,0.90
2023-01-12T05:40:23.372Z,1.00
2023-01-12T05:43:11.596Z,0.90
2023-01-12T05:45:41.065Z,0.93
2023-01-12T05:48:09.495Z,1.08
2023-01-12T05:50:36.081Z,1.00
2023-01-12T05:53:02.634Z,0.98
2023-01-12T05:55:29.304Z,0.90
2023-01-12T05:57:55.793Z,0.80
2023-01-12T06:00:25.252Z,0.95
2023-01-12T06:02:51.673Z,0.90
2023-01-12T06:05:18.134Z,0.90
2023-01-12T06:07:44.812Z,0.90
2023-01-12T06:10:11.828Z,0.75
2023-01-12T06:12:56.639Z,0.85
2023-01-12T06:15:23.341Z,0.75
2023-01-12T06:17:49.972Z,0.90
2023-01-12T06:20:17.318Z,0.90
2023-01-12T06:22:44.804Z,0.82
2023-01-12T06:25:12.581Z,0.85
2023-01-12T06:27:39.311Z,1.00
2023-01-12T06:30:07.315Z,0.80
2023-01-12T06:32:33.863Z,0.70
2023-01-12T06:35:07.074Z,1.08
2023-01-12T06:37:40.866Z,0.88
2023-01-12T06:40:08.190Z,0.80
2023-01-12T06:42:37.687Z,0.68
2023-01-12T06:45:04.442Z,0.80
2023-01-12T06:47:31.493Z,1.08
2023-01-12T06:49:58.467Z,0.82
2023-01-12T06:52:28.157Z,0.70
2023-01-12T06:54:55.182Z,0.77
2023-01-12T06:57:21.651Z,0.80
2023-01-12T06:59:48.132Z,0.68
2023-01-12T07:02:16.421Z,0.70
2023-01-12T07:04:43.270Z,0.70
2023-01-12T07:07:10.834Z,0.50
2023-01-12T07:09:37.293Z,0.77
2023-01-12T07:12:04.943Z,0.80
2023-01-12T07:14:31.620Z,0.70
2023-01-12T07:16:58.076Z,0.55
2023-01-12T07:19:24.568Z,0.70
2023-01-12T07:21:51.131Z,0.70
2023-01-12T07:24:17.725Z,0.73
2023-01-12T07:26:44.617Z,0.90
2023-01-12T07:29:11.484Z,0.70
2023-01-12T07:31:38.003Z,0.60
2023-01-12T07:34:04.608Z,0.73
2023-01-12T07:36:31.160Z,0.70
2023-01-12T07:38:57.678Z,0.73
2023-01-12T07:41:42.551Z,0.70
2023-01-12T07:44:09.820Z,0.70
2023-01-12T07:46:36.735Z,0.75
2023-01-12T07:49:03.298Z,0.70
2023-01-12T07:51:31.271Z,0.57
2023-01-12T07:53:57.812Z,0.70
2023-01-12T07:56:24.256Z,0.60
2023-01-12T07:58:50.802Z,0.63
2023-01-12T08:01:17.481Z,0.73
2023-01-12T08:03:43.970Z,0.75
2023-01-12T08:06:10.520Z,0.40
2023-01-12T08:08:37.157Z,0.70
2023-01-12T08:11:08.439Z,0.65
2023-01-12T08:13:36.005Z,0.52
2023-01-12T08:16:12.187Z,0.73
2023-01-12T08:18:46.263Z,0.80
2023-01-12T08:21:17.615Z,0.82
2023-01-12T08:23:51.937Z,0.85
2023-01-12T08:26:25.311Z,0.60
2023-01-12T08:28:59.634Z,0.60
2023-01-12T08:31:27.022Z,0.60
2023-01-12T08:33:54.592Z,0.70
2023-01-12T08:36:23.097Z,0.82
2023-01-12T08:38:49.876Z,0.50
2023-01-12T08:41:35.138Z,0.73
2023-01-12T08:44:03.988Z,0.60
2023-01-12T08:46:54.635Z,0.50
2023-01-12T08:49:24.518Z,0.65
2023-01-12T08:51:51.330Z,0.52
2023-01-12T08:54:19.525Z,0.65
2023-01-12T08:56:46.361Z,0.70
2023-01-12T08:59:13.347Z,0.68
2023-01-12T09:01:40.101Z,0.40
2023-01-12T09:04:06.790Z,0.50
2023-01-12T09:06:38.555Z,0.43
2023-01-12T09:09:10.140Z,0.50
2023-01-12T09:11:39.046Z,0.52
2023-01-12T09:14:06.218Z,0.70
2023-01-12T09:16:33.703Z,0.55
2023-01-12T09:19:00.597Z,0.60
2023-01-12T09:21:28.835Z,0.50
2023-01-12T09:23:55.903Z,0.55
2023-01-12T09:26:33.045Z,0.50
2023-01-12T09:29:00.558Z,0.57
2023-01-12T09:31:28.068Z,0.60
2023-01-12T09:33:55.522Z,0.50
2023-01-12T09:36:33.787Z,0.50
2023-01-12T09:39:02.066Z,0.50
2023-01-12T09:41:50.055Z,0.57
2023-01-12T09:44:51.019Z,0.40
2023-01-12T09:47:29.627Z,0.47
2023-01-12T09:50:28.224Z,0.40
2023-01-12T09:53:11.709Z,0.50
2023-01-12T09:55:44.228Z,0.50
2023-01-12T09:58:10.672Z,0.60
2023-01-12T10:00:37.150Z,0.43
2023-01-12T10:03:27.737Z,0.60
2023-01-12T10:05:58.242Z,0.63
2023-01-12T10:08:30.680Z,0.60
2023-01-12T10:11:02.807Z,0.30
2023-01-12T10:13:59.966Z,0.50
2023-01-12T10:16:51.377Z,0.47
2023-01-12T10:19:39.047Z,0.45
2023-01-12T10:22:38.318Z,0.60
2023-01-12T10:25:31.120Z,0.40
2023-01-12T10:27:59.314Z,0.30
2023-01-12T10:30:33.244Z,0.60
2023-01-12T10:33:10.411Z,0.60
2023-01-12T10:36:08.609Z,0.40
2023-01-12T10:38:38.674Z,0.40
2023-01-12T10:41:20.288Z,0.32
2023-01-12T10:44:07.001Z,0.30
2023-01-12T10:46:36.097Z,0.32
2023-01-12T10:49:20.471Z,0.40
2023-01-12T10:51:49.747Z,0.40
2023-01-12T10:54:19.019Z,0.35
2023-01-12T10:57:16.775Z,0.40
2023-01-12T10:59:52.119Z,0.50
2023-01-12T11:02:19.239Z,0.50
2023-01-12T11:04:52.416Z,0.60
2023-01-12T11:07:28.931Z,0.40
2023-01-12T11:10:00.185Z,0.40
2023-01-12T11:12:30.140Z,0.40
2023-01-12T11:15:18.568Z,0.40
2023-01-12T11:17:49.987Z,0.30
2023-01-12T11:20:31.838Z,0.50
2023-01-12T11:23:05.250Z,0.50
2023-01-12T11:25:38.251Z,0.40
2023-01-12T11:28:46.477Z,0.40
2023-01-12T11:31:23.734Z,0.57
2023-01-12T11:33:58.374Z,0.50
2023-01-12T11:36:29.018Z,0.40
2023-01-12T11:39:04.978Z,0.50
2023-01-12T11:41:40.264Z,0.38
2023-01-12T11:44:23.798Z,0.30
2023-01-12T11:47:21.146Z,0.50
2023-01-12T11:50:28.551Z,0.40
2023-01-12T11:52:56.227Z,0.43
2023-01-12T11:55:56.077Z,0.40
2023-01-12T11:58:29.066Z,0.50
2023-01-12T12:01:01.704Z,0.30
2023-01-12T12:06:10.839Z,0.40
2023-01-12T12:09:11.700Z,0.30
2023-01-12T12:11:49.554Z,0.20
2023-01-12T12:14:29.023Z,0.30
2023-01-12T12:17:16.171Z,0.50
2023-01-12T12:20:15.836Z,0.40
2023-01-12T12:23:04.109Z,0.32
2023-01-12T12:26:02.923Z,0.40
2023-01-12T12:28:47.756Z,0.55
2023-01-12T12:31:21.287Z,0.45
2023-01-12T12:33:59.096Z,0.30
2023-01-12T12:36:31.852Z,0.38
2023-01-12T12:42:37.041Z,0.40
2023-01-12T12:45:21.621Z,0.30
2023-01-12T12:48:09.688Z,0.30
2023-01-12T12:50:51.955Z,0.35
2023-01-12T12:53:28.959Z,0.35
2023-01-12T12:55:59.681Z,0.30
2023-01-12T12:58:29.285Z,0.30
2023-01-12T13:01:21.512Z,0.30
2023-01-12T13:03:49.264Z,0.37
2023-01-12T13:06:18.939Z,0.38
2023-01-12T13:08:47.887Z,0.32
2023-01-12T13:11:14.500Z,0.38
2023-01-12T13:14:01.088Z,0.20
2023-01-12T13:16:29.408Z,0.60
2023-01-12T13:18:55.872Z,0.47
2023-01-12T13:21:47.334Z,0.40
2023-01-12T13:24:13.778Z,0.40
2023-01-12T13:26:45.570Z,0.40
2023-01-12T13:29:24.566Z,0.30
2023-01-12T13:31:55.872Z,0.30
2023-01-12T13:34:49.979Z,0.20
2023-01-12T13:37:19.243Z,0.38
2023-01-12T13:40:20.709Z,0.32
2023-01-12T13:43:08.023Z,0.30
2023-01-12T13:45:36.324Z,0.40
2023-01-12T13:48:06.289Z,0.30
2023-01-12T13:50:35.196Z,0.25
2023-01-12T13:53:04.158Z,0.43
2023-01-12T13:55:35.514Z,0.22
2023-01-12T13:58:18.191Z,0.30
2023-01-12T14:00:54.027Z,0.30
2023-01-12T14:04:05.311Z,0.20
2023-01-12T14:06:50.655Z,0.40
2023-01-12T14:09:31.000Z,0.30
2023-01-12T14:12:04.972Z,0.45
2023-01-12T14:15:11.894Z,0.40
2023-01-12T14:17:50.280Z,0.50
2023-01-12T14:20:20.618Z,0.40
2023-01-12T14:22:50.335Z,0.50
2023-01-12T14:25:24.609Z,0.35
2023-01-12T14:27:58.983Z,0.30
2023-01-12T14:30:29.022Z,0.60
2023-01-12T14:32:55.797Z,0.35
2023-01-12T14:35:25.924Z,0.40
2023-01-12T14:37:59.225Z,0.35
2023-01-12T14:40:33.119Z,0.45
2023-01-12T14:43:20.480Z,0.38
2023-01-12T14:46:37.324Z,0.22
2023-01-12T14:49:19.915Z,0.50
2023-01-12T14:51:55.305Z,0.28
2023-01-12T14:54:27.714Z,0.43
2023-01-12T14:56:59.648Z,0.30
2023-01-12T14:59:32.234Z,0.40
2023-01-12T15:02:13.967Z,0.40
2023-01-12T15:05:24.177Z,0.40
2023-01-12T15:07:57.066Z,0.40
2023-01-12T15:10:40.938Z,0.40
2023-01-12T15:13:32.805Z,0.45
2023-01-12T15:16:22.821Z,0.40
2023-01-12T15:19:08.301Z,0.35
2023-01-12T15:21:55.183Z,0.20
2023-01-12T15:24:48.160Z,0.30
2023-01-12T15:27:16.997Z,0.82
2023-01-12T15:29:43.723Z,0.50
2023-01-12T15:32:16.737Z,0.40
2023-01-12T15:34:43.229Z,0.40
2023-01-12T15:37:15.326Z,0.35
2023-01-12T15:39:42.050Z,0.40
2023-01-12T15:42:16.981Z,0.35
2023-01-12T15:44:50.128Z,0.47
2023-01-12T15:47:18.412Z,0.35
2023-01-12T15:49:48.567Z,0.38
2023-01-12T15:52:18.735Z,0.32
2023-01-12T15:54:45.202Z,1.10
2023-01-12T15:57:13.480Z,0.30
2023-01-12T15:59:40.696Z,0.20
2023-01-12T16:02:36.061Z,0.50
2023-01-12T16:05:04.033Z,0.30
2023-01-12T16:07:30.620Z,0.40
2023-01-12T16:09:57.755Z,0.38
2023-01-12T16:12:25.171Z,0.45
2023-01-12T16:14:52.071Z,0.32
2023-01-12T16:17:18.850Z,0.45
2023-01-12T16:19:45.418Z,0.30
2023-01-12T16:22:21.221Z,0.60
2023-01-12T16:24:49.168Z,0.35
2023-01-12T16:27:16.634Z,0.47
2023-01-12T16:29:43.536Z,0.30
2023-01-12T16:32:10.116Z,0.60
2023-01-12T16:34:36.867Z,0.57
2023-01-12T16:37:04.315Z,0.40
2023-01-12T16:39:31.422Z,0.60
2023-01-12T16:42:03.546Z,0.57
2023-01-12T16:44:37.401Z,0.47
2023-01-12T16:47:22.419Z,0.50
2023-01-12T16:49:50.535Z,0.40
2023-01-12T16:52:19.284Z,0.43
2023-01-12T16:54:45.937Z,0.50
2023-01-12T16:57:15.556Z,0.60
2023-01-12T16:59:42.258Z,0.30
2023-01-12T17:02:13.442Z,0.40
2023-01-12T17:04:42.243Z,0.60
2023-01-12T17:07:09.271Z,0.50
2023-01-12T17:09:37.550Z,0.40
2023-01-12T17:12:04.607Z,0.50
2023-01-12T17:14:34.450Z,0.43
2023-01-12T17:17:05.027Z,0.40
2023-01-12T17:19:34.035Z,0.85
2023-01-12T17:22:02.199Z,0.60
2023-01-12T17:24:30.103Z,0.50
2023-01-12T17:26:57.422Z,0.50
2023-01-12T17:29:25.500Z,0.80
2023-01-12T17:31:52.585Z,0.45
2023-01-12T17:34:20.612Z,0.60
2023-01-12T17:36:47.258Z,0.50
2023-01-12T17:39:17.400Z,0.60
2023-01-12T17:42:02.511Z,0.60
2023-01-12T17:44:29.289Z,0.70
2023-01-12T17:46:58.784Z,0.40
2023-01-12T17:49:25.249Z,0.47
2023-01-12T17:51:52.003Z,0.50
2023-01-12T17:54:18.550Z,0.60
2023-01-12T17:56:45.604Z,0.40
2023-01-12T17:59:21.048Z,0.38
2023-01-12T18:01:47.930Z,0.40
2023-01-12T18:04:14.907Z,0.50
2023-01-12T18:06:42.396Z,0.50
2023-01-12T18:09:11.229Z,0.50
2023-01-12T18:11:38.808Z,0.40
2023-01-12T18:14:05.687Z,0.50
2023-01-12T18:16:32.833Z,0.43
2023-01-12T18:19:01.380Z,0.55
2023-01-12T18:21:27.951Z,0.85
2023-01-12T18:23:56.138Z,0.40
2023-01-12T18:26:28.713Z,0.50
2023-01-12T18:28:57.009Z,0.35
2023-01-12T18:31:26.946Z,0.40
2023-01-12T18:34:05.745Z,0.45
2023-01-12T18:36:35.788Z,0.40
2023-01-12T18:39:03.940Z,0.40
2023-01-12T18:41:48.775Z,0.50
2023-01-12T18:44:15.423Z,0.50
2023-01-12T18:47:02.664Z,0.50
2023-01-12T18:49:34.067Z,0.70
2023-01-12T18:52:19.936Z,0.55
2023-01-12T18:54:53.192Z,0.40
2023-01-12T18:57:22.853Z,0.43
2023-01-12T19:00:00.258Z,0.50
2023-01-12T19:02:27.237Z,0.50
2023-01-12T19:05:12.393Z,0.50
2023-01-12T19:07:57.139Z,0.73
2023-01-12T19:10:23.711Z,0.30
2023-01-12T19:12:50.277Z,0.30
2023-01-12T19:15:35.430Z,0.30
2023-01-12T19:18:02.070Z,0.30
2023-01-12T19:20:31.704Z,0.40
2023-01-12T19:23:16.905Z,0.57
2023-01-12T19:26:01.681Z,0.40
2023-01-12T19:28:35.843Z,0.50
2023-01-12T19:31:10.778Z,0.52
2023-01-12T19:33:38.603Z,0.28
2023-01-12T19:36:07.713Z,0.32
2023-01-12T19:38:35.970Z,0.30
2023-01-12T19:41:33.245Z,0.35
2023-01-12T19:44:01.271Z,0.50
2023-01-12T19:46:27.961Z,0.30
2023-01-12T19:48:54.447Z,0.60
2023-01-12T19:51:20.915Z,0.40
2023-01-12T19:53:47.337Z,0.40
2023-01-12T19:56:14.591Z,0.38
2023-01-12T19:58:41.812Z,0.40
2023-01-12T20:01:08.833Z,0.30
2023-01-12T20:03:36.253Z,0.43
2023-01-12T20:06:07.198Z,0.57
2023-01-12T20:08:33.740Z,0.50
2023-01-12T20:11:04.904Z,0.60
2023-01-12T20:13:32.691Z,0.30
2023-01-12T20:15:59.534Z,0.40
2023-01-12T20:18:26.098Z,0.60
2023-01-12T20:20:53.409Z,0.45
2023-01-12T20:23:20.302Z,0.50
2023-01-12T20:25:46.879Z,0.47
2023-01-12T20:28:14.305Z,0.30
2023-01-12T20:30:43.658Z,0.50
2023-01-12T20:33:11.272Z,0.40
2023-01-12T20:35:39.013Z,0.40
2023-01-12T20:38:08.564Z,0.40
2023-01-12T20:40:35.032Z,0.32
2023-01-12T20:43:01.513Z,0.38
2023-01-12T20:45:28.071Z,0.40
2023-01-12T20:47:55.667Z,0.40
2023-01-12T20:50:23.219Z,0.40
2023-01-12T20:52:50.964Z,0.50
2023-01-12T20:55:17.749Z,0.40
2023-01-12T20:57:44.547Z,0.40
2023-01-12T21:00:11.793Z,0.35
2023-01-12T21:02:38.295Z,0.40
2023-01-12T21:05:05.133Z,0.50
2023-01-12T21:07:31.636Z,0.40
2023-01-12T21:09:58.131Z,0.32
2023-01-12T21:12:27.279Z,0.40
2023-01-12T21:14:54.382Z,0.50
2023-01-12T21:17:21.550Z,0.43
2023-01-12T21:19:48.121Z,0.28
2023-01-12T21:22:14.688Z,0.50
2023-01-12T21:24:41.205Z,0.30
2023-01-12T21:27:07.745Z,0.45
2023-01-12T21:29:34.336Z,0.40
2023-01-12T21:32:00.890Z,0.30
2023-01-12T21:34:27.359Z,0.40
2023-01-12T21:36:53.789Z,0.40
2023-01-12T21:39:20.333Z,0.35
2023-01-12T21:42:05.458Z,0.40
2023-01-12T21:44:31.920Z,0.40
2023-01-12T21:46:58.384Z,0.30
2023-01-12T21:49:24.848Z,0.30
2023-01-12T21:51:51.279Z,0.35
2023-01-12T21:54:17.812Z,0.38
2023-01-12T21:56:44.332Z,0.35
2023-01-12T21:59:11.724Z,0.40
2023-01-12T22:01:38.854Z,0.30
2023-01-12T22:04:05.449Z,0.30
2023-01-12T22:06:32.029Z,0.28
2023-01-12T22:08:58.954Z,0.30
2023-01-12T22:11:25.539Z,0.30
2023-01-12T22:13:51.974Z,0.30
2023-01-12T22:16:18.552Z,0.30
2023-01-12T22:18:50.151Z,0.20
2023-01-12T22:21:19.132Z,0.40
2023-01-12T22:23:45.716Z,0.30
2023-01-12T22:26:14.398Z,0.40
2023-01-12T22:28:42.933Z,0.40
2023-01-12T22:31:21.260Z,0.35
2023-01-12T22:33:54.043Z,0.40
2023-01-12T22:36:20.821Z,0.30
2023-01-12T22:38:47.351Z,0.30
2023-01-12T22:41:13.877Z,0.40
2023-01-12T22:43:40.935Z,0.30
2023-01-12T22:46:13.240Z,0.20
2023-01-12T22:48:40.276Z,0.20
2023-01-12T22:51:07.900Z,0.30
2023-01-12T22:53:35.185Z,0.25
2023-01-12T22:56:05.516Z,0.30
2023-01-12T22:58:32.040Z,0.40
2023-01-12T23:01:04.030Z,0.32
2023-01-12T23:03:30.824Z,0.20
2023-01-12T23:05:58.077Z,0.40
2023-01-12T23:08:25.644Z,0.40
2023-01-12T23:11:01.443Z,0.30
2023-01-12T23:13:28.209Z,0.52
2023-01-12T23:15:58.017Z,0.40
2023-01-12T23:18:29.704Z,0.30
2023-01-12T23:21:16.661Z,0.28
2023-01-12T23:23:51.851Z,0.40
2023-01-12T23:26:24.231Z,0.30
2023-01-12T23:28:55.998Z,0.40
2023-01-12T23:31:25.764Z,0.40
2023-01-12T23:33:52.503Z,0.30
2023-01-12T23:36:24.286Z,0.30
2023-01-12T23:38:57.913Z,0.30
2023-01-12T23:41:26.683Z,0.50
2023-01-12T23:43:56.286Z,0.30
2023-01-12T23:46:24.433Z,0.40
2023-01-12T23:48:52.457Z,0.30
2023-01-12T23:51:19.229Z,0.30
2023-01-12T23:53:46.116Z,0.40
2023-01-12T23:56:15.645Z,0.25
2023-01-12T23:58:43.336Z,0.30
